Aviation Digital Data Service (ADDS)

Output produced by METARs form (1103 UTC 30 April 2017)
found at http://www.aviationweather.gov/adds/metars/
 
MGGT 301100Z 20004KT 7000 SKC 18/17 Q1024 A3024 BR
TAF MGGT 300500Z 3006/0106 VRB03KT 4000 BR FEW014 SCT080 TX29/3020Z TN17/3012Z 
     BECMG 3015/3017 18010KT 8000 FEW018 
     PROB30 
     TEMPO 3020/0103 TSRA SCT018 FEW025CB 
     BECMG 0102/0104 SCT016
       
MGPB 301100Z 00000KT 8000 SKC 26/25 Q1008 A2977 BR
TAF MGPB 300500Z 3006/0106 00000KT 9000 SCT016 TX34/3020Z TN22/3012Z 
     BECMG 3015/3017 06008KT FEW018 
     TEMPO 3021/0106 TSRA SCT018 FEW025CB 
     BECMG 0100/0102 00000KT SCT016
       
TAF MGSJ 300500Z 3006/0106 00000KT 8000 SKC TX34/2920Z TN22/3012Z 
     BECMG 3014/3016 18008KT 
     BECMG 3019/3021 6000 FEW022TCU 
     BECMG 0100/0102 00000KT SCT016